createdAt,value
2023-04-24T00:00:18.653Z,97132.03
2023-04-24T00:05:22.006Z,97128.69
2023-04-24T00:10:24.961Z,97132.34
2023-04-24T00:15:29.488Z,97128.69
2023-04-24T00:20:33.425Z,97124.84
2023-04-24T00:25:36.270Z,97116.00
2023-04-24T00:30:40.414Z,97111.19
2023-04-24T00:35:43.105Z,97098.84
2023-04-24T00:40:48.699Z,97098.84
2023-04-24T00:45:52.893Z,97102.50
2023-04-24T00:50:55.800Z,97098.84
2023-04-24T00:55:58.832Z,97097.19
2023-04-24T01:01:03.580Z,97093.34
2023-04-24T01:06:07.481Z,97097.19
2023-04-24T01:11:10.208Z,97096.66
2023-04-24T01:16:14.458Z,97106.66
2023-04-24T01:21:18.366Z,97115.66
2023-04-24T01:26:22.471Z,97100.81
2023-04-24T01:31:25.438Z,97106.16
2023-04-24T01:36:30.653Z,97109.47
2023-04-24T01:41:35.659Z,97105.31
2023-04-24T01:46:38.462Z,97114.97
2023-04-24T01:51:41.255Z,97128.63
2023-04-24T01:56:45.763Z,97125.44
2023-04-24T02:01:48.553Z,97127.09
2023-04-24T02:06:51.654Z,97131.09
2023-04-24T02:11:55.941Z,97118.59
2023-04-24T02:16:58.758Z,97129.44
2023-04-24T02:22:01.925Z,97131.41
2023-04-24T02:27:06.804Z,97129.75
2023-04-24T02:32:12.450Z,97135.22
2023-04-24T02:37:15.374Z,97135.53
2023-04-24T02:42:20.987Z,97135.66
2023-04-24T02:47:23.763Z,97128.84
2023-04-24T02:52:26.632Z,97123.16
2023-04-24T02:57:30.912Z,97134.28
2023-04-24T03:02:33.799Z,97141.75
2023-04-24T03:07:36.690Z,97147.41
2023-04-24T03:12:40.854Z,97140.25
2023-04-24T03:17:43.610Z,97150.34
2023-04-24T03:22:46.486Z,97154.34
2023-04-24T03:27:50.699Z,97161.44
2023-04-24T03:33:05.236Z,97166.41
2023-04-24T03:38:11.999Z,97167.50
2023-04-24T03:43:31.367Z,97171.78
2023-04-24T03:48:37.016Z,97176.19
2023-04-24T03:53:40.026Z,97180.34
2023-04-24T03:58:45.182Z,97186.78
2023-04-24T04:03:48.364Z,97193.88
2023-04-24T04:08:55.716Z,97216.50
2023-04-24T04:13:59.896Z,97208.72
2023-04-24T04:19:03.947Z,97213.56
2023-04-24T04:24:08.266Z,97223.06
2023-04-24T04:29:18.825Z,97231.56
2023-04-24T04:34:24.625Z,97231.63
2023-04-24T04:39:29.200Z,97234.06
2023-04-24T04:44:43.817Z,97234.69
2023-04-24T04:49:53.116Z,97241.44
2023-04-24T04:55:01.216Z,97234.00
2023-04-24T05:00:26.264Z,97252.59
2023-04-24T05:05:29.922Z,97254.25
2023-04-24T05:10:33.074Z,97261.41
2023-04-24T05:15:37.935Z,97252.75
2023-04-24T05:20:41.192Z,97257.88
2023-04-24T05:25:44.204Z,97264.97
2023-04-24T05:30:51.031Z,97272.28
2023-04-24T05:35:58.068Z,97272.09
2023-04-24T05:41:01.996Z,97280.31
2023-04-24T05:46:06.332Z,97293.78
2023-04-24T05:51:09.631Z,97307.59
2023-04-24T05:56:12.730Z,97307.31
2023-04-24T06:01:17.052Z,97306.31
2023-04-24T06:06:23.722Z,97305.38
2023-04-24T06:11:26.975Z,97309.28
2023-04-24T06:16:33.551Z,97309.56
2023-04-24T06:21:43.044Z,97311.84
2023-04-24T06:26:47.881Z,97317.97
2023-04-24T06:31:53.048Z,97319.91
2023-04-24T06:36:56.945Z,97308.28
2023-04-24T06:42:01.470Z,97307.44
2023-04-24T06:47:05.771Z,97303.66
2023-04-24T06:52:08.864Z,97317.00
2023-04-24T06:57:13.631Z,97318.50
2023-04-24T07:02:17.885Z,97302.09
2023-04-24T07:07:21.513Z,97320.63
2023-04-24T07:12:27.333Z,97300.97
2023-04-24T07:17:31.597Z,97296.53
2023-04-24T07:22:35.108Z,97302.53
2023-04-24T07:27:38.004Z,97302.44
2023-04-24T07:32:42.112Z,97297.13
2023-04-24T07:37:47.117Z,97304.09
2023-04-24T07:42:52.057Z,97300.75
2023-04-24T07:47:57.314Z,97306.69
2023-04-24T07:53:00.755Z,97311.53
2023-04-24T07:58:04.128Z,97318.25
2023-04-24T08:03:08.465Z,97313.66
2023-04-24T08:08:11.902Z,97326.56
2023-04-24T08:13:16.415Z,97331.66
2023-04-24T08:18:21.606Z,97341.66
2023-04-24T08:23:24.717Z,97354.22
2023-04-24T08:28:27.748Z,97352.97
2023-04-24T08:33:35.201Z,97352.22
2023-04-24T08:38:40.213Z,97365.50
2023-04-24T08:43:45.348Z,97373.94
2023-04-24T08:48:54.116Z,97361.97
2023-04-24T08:53:59.819Z,97375.56
2023-04-24T08:59:03.854Z,97377.72
2023-04-24T09:04:09.975Z,97385.72
2023-04-24T09:09:13.550Z,97386.31
2023-04-24T09:14:18.618Z,97399.03
2023-04-24T09:19:23.476Z,97398.81
2023-04-24T09:24:27.166Z,97397.38
2023-04-24T09:29:31.194Z,97411.91
2023-04-24T09:34:36.252Z,97420.44
2023-04-24T09:39:41.240Z,97448.34
2023-04-24T09:44:44.766Z,97462.66
2023-04-24T09:49:49.173Z,97470.84
2023-04-24T09:54:55.454Z,97492.41
2023-04-24T10:00:01.818Z,97483.69
2023-04-24T10:05:16.893Z,97483.34
2023-04-24T10:10:20.994Z,97482.44
2023-04-24T10:15:24.240Z,97495.06
2023-04-24T10:20:32.091Z,97505.47
2023-04-24T10:25:38.202Z,97508.09
2023-04-24T10:30:44.848Z,97508.53
2023-04-24T10:35:53.189Z,97512.25
2023-04-24T10:41:08.517Z,97517.41
2023-04-24T10:46:13.472Z,97521.00
2023-04-24T10:51:20.135Z,97532.94
2023-04-24T10:56:23.995Z,97532.25
2023-04-24T11:01:28.381Z,97536.03
2023-04-24T11:06:35.162Z,97543.03
2023-04-24T11:11:41.082Z,97552.22
2023-04-24T11:16:47.259Z,97558.25
2023-04-24T11:22:01.328Z,97563.09
2023-04-24T11:27:09.240Z,97566.16
2023-04-24T11:32:29.205Z,97577.47
2023-04-24T11:37:39.322Z,97600.34
2023-04-24T11:42:45.379Z,97626.22
2023-04-24T11:47:48.143Z,97618.06
2023-04-24T11:52:54.267Z,97635.03
2023-04-24T11:57:59.317Z,97628.22
2023-04-24T12:03:10.669Z,97635.53
2023-04-24T12:08:30.366Z,97633.94
2023-04-24T12:13:33.656Z,97633.44
2023-04-24T12:18:36.551Z,97638.09
2023-04-24T12:23:42.532Z,97634.97
2023-04-24T12:28:48.352Z,97626.63
2023-04-24T12:33:54.291Z,97635.72
2023-04-24T12:38:58.637Z,97640.22
2023-04-24T12:44:01.948Z,97647.84
2023-04-24T12:49:06.281Z,97654.00
2023-04-24T12:54:14.412Z,97657.03
2023-04-24T12:59:19.010Z,97660.06
2023-04-24T13:04:22.412Z,97654.56
2023-04-24T13:09:26.777Z,97659.53
2023-04-24T13:14:30.327Z,97652.00
2023-04-24T13:19:37.964Z,97653.56
2023-04-24T13:24:44.421Z,97651.06
2023-04-24T13:29:47.616Z,97644.59
2023-04-24T13:34:52.645Z,97641.50
2023-04-24T13:39:57.623Z,97653.09
2023-04-24T13:45:06.111Z,97661.38
2023-04-24T13:50:17.180Z,97649.84
2023-04-24T13:55:21.409Z,97664.44
2023-04-24T14:00:25.542Z,97664.88
2023-04-24T14:05:28.409Z,97645.69
2023-04-24T14:10:32.730Z,97643.78
2023-04-24T14:15:38.976Z,97635.38
2023-04-24T14:20:41.841Z,97640.56
2023-04-24T14:25:46.857Z,97636.63
2023-04-24T14:30:50.381Z,97647.03
2023-04-24T14:35:54.398Z,97638.38
2023-04-24T14:41:07.301Z,97646.06
2023-04-24T14:46:10.944Z,97639.81
2023-04-24T14:51:15.632Z,97638.88
2023-04-24T14:56:22.747Z,97658.94
2023-04-24T15:01:26.147Z,97666.66
2023-04-24T15:06:32.435Z,97677.19
2023-04-24T15:11:36.782Z,97668.50
2023-04-24T15:16:42.207Z,97664.28
2023-04-24T15:21:45.527Z,97676.91
2023-04-24T15:26:50.760Z,97678.75
2023-04-24T15:31:54.155Z,97677.00
2023-04-24T15:36:57.447Z,97672.19
2023-04-24T15:42:02.702Z,97675.16
2023-04-24T15:47:06.449Z,97687.38
2023-04-24T15:52:10.539Z,97679.72
2023-04-24T15:57:14.704Z,97682.78
2023-04-24T16:02:19.711Z,97673.19
2023-04-24T16:07:25.993Z,97679.78
2023-04-24T16:12:30.649Z,97674.34
2023-04-24T16:17:35.605Z,97670.69
2023-04-24T16:22:39.895Z,97677.03
2023-04-24T16:27:45.509Z,97672.47
2023-04-24T16:32:49.926Z,97678.19
2023-04-24T16:37:53.256Z,97672.97
2023-04-24T16:42:57.438Z,97676.88
2023-04-24T16:48:00.583Z,97678.63
2023-04-24T16:53:04.305Z,97676.56
2023-04-24T16:58:09.519Z,97664.94
2023-04-24T17:03:14.333Z,97672.81
2023-04-24T17:08:19.451Z,97673.84
2023-04-24T17:13:23.618Z,97677.53
2023-04-24T17:18:28.304Z,97681.47
2023-04-24T17:23:32.534Z,97683.66
2023-04-24T17:28:37.187Z,97683.66
2023-04-24T17:33:39.967Z,97682.03
2023-04-24T17:38:43.332Z,97691.75
2023-04-24T17:43:47.637Z,97694.19
2023-04-24T17:48:51.205Z,97704.16
2023-04-24T17:53:55.692Z,97693.97
2023-04-24T17:59:01.611Z,97704.72
2023-04-24T18:04:04.609Z,97707.44
2023-04-24T18:09:09.234Z,97706.94
2023-04-24T18:14:13.644Z,97709.91
2023-04-24T18:19:18.798Z,97722.44
2023-04-24T18:24:22.411Z,97722.66
2023-04-24T18:29:26.499Z,97725.06
2023-04-24T18:34:31.673Z,97734.56
2023-04-24T18:39:36.664Z,97740.91
2023-04-24T18:44:42.774Z,97741.13
2023-04-24T18:49:46.220Z,97739.53
2023-04-24T18:54:49.132Z,97734.41
2023-04-24T18:59:53.866Z,97747.03
2023-04-24T19:04:57.294Z,97747.75
2023-04-24T19:10:01.886Z,97757.44
2023-04-24T19:15:11.685Z,97760.38
2023-04-24T19:20:14.553Z,97763.09
2023-04-24T19:25:17.647Z,97786.50
2023-04-24T19:30:21.843Z,97779.50
2023-04-24T19:35:24.696Z,97781.31
2023-04-24T19:40:27.668Z,97786.06
2023-04-24T19:45:32.704Z,97781.75
2023-04-24T19:50:36.002Z,97783.41
2023-04-24T19:55:38.876Z,97789.31
2023-04-24T20:00:44.911Z,97776.69
2023-04-24T20:05:47.922Z,97777.84
2023-04-24T20:10:50.886Z,97772.94
2023-04-24T20:15:56.562Z,97774.03
2023-04-24T20:21:00.132Z,97773.34
2023-04-24T20:26:04.877Z,97780.78
2023-04-24T20:31:09.750Z,97784.72
2023-04-24T20:36:12.580Z,97783.44
2023-04-24T20:41:15.991Z,97786.22
2023-04-24T20:46:20.510Z,97793.38
2023-04-24T20:51:23.476Z,97786.38
2023-04-24T20:56:26.669Z,97796.59
2023-04-24T21:01:31.194Z,97792.66
2023-04-24T21:06:34.265Z,97790.41
2023-04-24T21:11:37.393Z,97790.84
2023-04-24T21:16:42.680Z,97791.91
2023-04-24T21:21:46.355Z,97792.91
2023-04-24T21:26:50.662Z,97786.72
2023-04-24T21:31:55.649Z,97782.22
2023-04-24T21:36:58.455Z,97782.78
2023-04-24T21:42:01.202Z,97777.63
2023-04-24T21:47:05.702Z,97780.41
2023-04-24T21:52:08.782Z,97780.56
2023-04-24T21:57:11.631Z,97771.88
2023-04-24T22:02:16.048Z,97774.63
2023-04-24T22:07:18.800Z,97779.69
2023-04-24T22:12:21.615Z,97770.88
2023-04-24T22:17:26.435Z,97773.53
2023-04-24T22:22:29.535Z,97770.88
2023-04-24T22:27:35.615Z,97779.00
2023-04-24T22:32:40.045Z,97773.22
2023-04-24T22:37:42.906Z,97778.72
2023-04-24T22:42:45.691Z,97772.97
2023-04-24T22:47:49.931Z,97777.03
2023-04-24T22:52:54.187Z,97775.75
2023-04-24T22:57:57.633Z,97762.31
2023-04-24T23:03:01.942Z,97765.09
2023-04-24T23:08:04.778Z,97762.00
2023-04-24T23:13:07.572Z,97762.13
2023-04-24T23:18:12.596Z,97763.88
2023-04-24T23:23:16.058Z,97770.31
2023-04-24T23:28:18.911Z,97761.06
2023-04-24T23:33:23.302Z,97760.63
2023-04-24T23:38:26.592Z,97765.47
2023-04-24T23:43:31.416Z,97764.31
2023-04-24T23:48:37.009Z,97764.38
2023-04-24T23:53:39.883Z,97762.50
2023-04-24T23:58:42.626Z,97768.06
